METAR Data
IDs: Format: Raw Decoded Include TAF

Data at: 0149 UTC 01 Mar 2021

KOWA 010133Z AUTO 27010KT 10SM CLR M07/M09 A3005 RMK AO2